createdAt,value
2022-12-01T00:01:01.971Z,10.54
2022-12-01T00:03:32.233Z,10.66
2022-12-01T00:06:06.918Z,10.68
2022-12-01T00:08:34.360Z,10.69
2022-12-01T00:11:19.106Z,10.66
2022-12-01T00:13:45.604Z,10.68
2022-12-01T00:16:14.219Z,10.59
2022-12-01T00:18:41.082Z,10.59
2022-12-01T00:21:14.710Z,10.55
2022-12-01T00:23:44.882Z,10.64
2022-12-01T00:26:11.398Z,10.55
2022-12-01T00:28:37.931Z,10.50
2022-12-01T00:31:08.951Z,10.53
2022-12-01T00:33:35.624Z,10.51
2022-12-01T00:36:03.200Z,10.47
2022-12-01T00:38:30.168Z,10.53
2022-12-01T00:40:56.762Z,10.58
2022-12-01T00:43:24.170Z,10.52
2022-12-01T00:45:51.514Z,10.53
2022-12-01T00:48:20.785Z,10.53
2022-12-01T00:50:47.706Z,10.29
2022-12-01T00:53:14.213Z,10.29
2022-12-01T00:55:40.800Z,9.95
2022-12-01T00:58:07.581Z,10.09
2022-12-01T01:00:34.348Z,10.20
2022-12-01T01:03:01.296Z,10.31
2022-12-01T01:05:27.815Z,10.23
2022-12-01T01:07:54.399Z,10.14
2022-12-01T01:10:21.040Z,9.99
2022-12-01T01:12:47.578Z,9.88
2022-12-01T01:15:14.151Z,10.04
2022-12-01T01:17:40.795Z,10.05
2022-12-01T01:20:07.876Z,10.12
2022-12-01T01:22:35.146Z,10.07
2022-12-01T01:25:01.697Z,10.06
2022-12-01T01:27:28.209Z,10.01
2022-12-01T01:29:54.725Z,10.01
2022-12-01T01:32:21.322Z,9.98
2022-12-01T01:34:47.841Z,9.96
2022-12-01T01:37:14.378Z,10.03
2022-12-01T01:39:40.957Z,10.11
2022-12-01T01:42:12.886Z,10.12
2022-12-01T01:44:51.731Z,10.06
2022-12-01T01:47:24.393Z,10.24
2022-12-01T01:49:51.741Z,10.12
2022-12-01T01:52:18.597Z,10.18
2022-12-01T01:54:49.980Z,10.20
2022-12-01T01:57:23.025Z,10.16
2022-12-01T01:59:55.198Z,10.15
2022-12-01T02:02:21.867Z,9.98
2022-12-01T02:04:55.885Z,9.70
2022-12-01T02:07:22.673Z,9.88
2022-12-01T02:09:49.468Z,9.94
2022-12-01T02:12:40.271Z,9.92
2022-12-01T02:15:27.890Z,9.92
2022-12-01T02:18:12.012Z,10.02
2022-12-01T02:20:45.529Z,10.08
2022-12-01T02:23:44.709Z,10.10
2022-12-01T02:26:26.681Z,10.09
2022-12-01T02:29:19.325Z,9.88
2022-12-01T02:32:18.761Z,9.92
2022-12-01T02:35:00.716Z,9.97
2022-12-01T02:37:39.298Z,10.06
2022-12-01T02:40:33.983Z,9.83
2022-12-01T02:43:07.672Z,9.83
2022-12-01T02:45:43.207Z,10.11
2022-12-01T02:48:18.799Z,10.15
2022-12-01T02:50:46.230Z,10.16
2022-12-01T02:53:17.019Z,10.09
2022-12-01T02:55:54.776Z,10.22
2022-12-01T02:58:21.860Z,10.13
2022-12-01T03:01:18.229Z,10.22
2022-12-01T03:04:13.988Z,10.27
2022-12-01T03:06:54.269Z,10.24
2022-12-01T03:09:38.257Z,10.27
2022-12-01T03:12:04.716Z,10.29
2022-12-01T03:15:00.684Z,10.26
2022-12-01T03:17:34.808Z,10.26
2022-12-01T03:20:32.843Z,10.33
2022-12-01T03:23:09.374Z,10.30
2022-12-01T03:25:39.783Z,10.28
2022-12-01T03:28:24.598Z,10.25
2022-12-01T03:30:57.094Z,10.29
2022-12-01T03:33:33.413Z,10.26
2022-12-01T03:36:04.977Z,10.31
2022-12-01T03:38:36.075Z,10.32
2022-12-01T03:41:09.344Z,10.22
2022-12-01T03:43:41.196Z,10.23
2022-12-01T03:46:11.147Z,10.21
2022-12-01T03:48:39.568Z,10.15
2022-12-01T03:51:13.890Z,10.20
2022-12-01T03:53:56.744Z,10.22
2022-12-01T03:56:30.628Z,10.22
2022-12-01T03:58:58.088Z,10.30
2022-12-01T04:01:26.437Z,10.31
2022-12-01T04:03:53.048Z,10.22
2022-12-01T04:06:19.585Z,10.12
2022-12-01T04:08:46.089Z,10.23
2022-12-01T04:11:32.940Z,10.26
2022-12-01T04:13:59.920Z,10.34
2022-12-01T04:16:26.471Z,10.32
2022-12-01T04:18:53.041Z,10.38
2022-12-01T04:21:19.577Z,10.40
2022-12-01T04:24:01.148Z,10.42
2022-12-01T04:26:30.093Z,10.34
2022-12-01T04:28:56.597Z,10.46
2022-12-01T04:31:23.218Z,10.46
2022-12-01T04:33:49.809Z,10.35
2022-12-01T04:36:16.397Z,10.34
2022-12-01T04:38:42.960Z,10.32
2022-12-01T04:41:13.530Z,10.36
2022-12-01T04:43:41.377Z,10.45
2022-12-01T04:46:08.048Z,10.41
2022-12-01T04:48:36.198Z,10.23
2022-12-01T04:51:04.498Z,10.34
2022-12-01T04:53:31.199Z,10.46
2022-12-01T04:56:00.410Z,10.48
2022-12-01T04:58:31.215Z,10.46
2022-12-01T05:01:03.127Z,10.37
2022-12-01T05:03:29.963Z,10.37
2022-12-01T05:06:05.019Z,10.43
2022-12-01T05:08:31.545Z,10.48
2022-12-01T05:10:58.078Z,10.42
2022-12-01T05:13:24.665Z,10.50
2022-12-01T05:15:51.412Z,10.44
2022-12-01T05:18:18.042Z,10.26
2022-12-01T05:20:59.723Z,10.24
2022-12-01T05:23:28.174Z,10.32
2022-12-01T05:25:55.065Z,10.38
2022-12-01T05:28:23.387Z,10.32
2022-12-01T05:30:50.688Z,10.25
2022-12-01T05:33:17.709Z,10.34
2022-12-01T05:35:44.468Z,10.34
2022-12-01T05:38:11.439Z,10.42
2022-12-01T05:40:38.336Z,10.41
2022-12-01T05:43:05.013Z,10.48
2022-12-01T05:45:31.915Z,10.50
2022-12-01T05:48:00.179Z,10.56
2022-12-01T05:50:28.962Z,10.59
2022-12-01T05:52:56.163Z,10.59
2022-12-01T05:55:22.705Z,10.56
2022-12-01T05:57:49.281Z,10.49
2022-12-01T06:00:16.337Z,10.63
2022-12-01T06:02:42.915Z,10.58
2022-12-01T06:05:09.876Z,10.40
2022-12-01T06:07:36.498Z,10.56
2022-12-01T06:10:03.709Z,10.49
2022-12-01T06:12:30.248Z,10.56
2022-12-01T06:14:56.824Z,10.62
2022-12-01T06:17:23.485Z,10.61
2022-12-01T06:19:50.165Z,10.58
2022-12-01T06:22:16.935Z,10.56
2022-12-01T06:24:43.485Z,10.58
2022-12-01T06:27:10.038Z,10.52
2022-12-01T06:29:48.372Z,10.55
2022-12-01T06:32:16.285Z,10.61
2022-12-01T06:34:43.655Z,10.48
2022-12-01T06:37:11.216Z,10.60
2022-12-01T06:39:37.824Z,10.61
2022-12-01T06:42:04.409Z,10.56
2022-12-01T06:44:31.046Z,10.44
2022-12-01T06:46:57.564Z,10.44
2022-12-01T06:49:24.073Z,10.44
2022-12-01T06:51:50.628Z,10.32
2022-12-01T06:54:17.981Z,10.44
2022-12-01T06:56:45.805Z,10.50
2022-12-01T06:59:12.798Z,10.64
2022-12-01T07:01:39.719Z,10.63
2022-12-01T07:04:06.281Z,10.61
2022-12-01T07:06:32.978Z,10.69
2022-12-01T07:08:59.681Z,10.80
2022-12-01T07:11:26.203Z,10.83
2022-12-01T07:13:55.809Z,10.87
2022-12-01T07:16:22.918Z,10.90
2022-12-01T07:18:49.591Z,10.89
2022-12-01T07:21:16.666Z,10.87
2022-12-01T07:23:43.262Z,10.97
2022-12-01T07:26:15.584Z,10.98
2022-12-01T07:28:42.848Z,10.91
2022-12-01T07:31:15.078Z,10.94
2022-12-01T07:33:42.043Z,10.91
2022-12-01T07:36:09.107Z,10.89
2022-12-01T07:38:36.425Z,10.96
2022-12-01T07:41:13.493Z,10.97
2022-12-01T07:43:40.241Z,11.06
2022-12-01T07:46:13.688Z,11.22
2022-12-01T07:48:44.681Z,11.31
2022-12-01T07:51:16.545Z,11.31
2022-12-01T07:53:49.413Z,11.35
2022-12-01T07:56:16.878Z,11.36
2022-12-01T07:58:43.728Z,11.41
2022-12-01T08:01:12.607Z,11.45
2022-12-01T08:03:39.983Z,11.45
2022-12-01T08:06:07.623Z,11.31
2022-12-01T08:08:35.744Z,11.40
2022-12-01T08:11:14.268Z,11.22
2022-12-01T08:13:41.956Z,11.27
2022-12-01T08:16:10.669Z,11.31
2022-12-01T08:18:38.602Z,11.21
2022-12-01T08:21:07.011Z,11.16
2022-12-01T08:23:33.874Z,11.19
2022-12-01T08:26:21.143Z,11.22
2022-12-01T08:28:48.424Z,11.23
2022-12-01T08:31:23.717Z,11.39
2022-12-01T08:33:50.985Z,11.45
2022-12-01T08:36:18.578Z,11.43
2022-12-01T08:38:46.272Z,11.46
2022-12-01T08:41:14.164Z,11.47
2022-12-01T08:43:57.329Z,11.28
2022-12-01T08:46:27.000Z,11.21
2022-12-01T08:48:54.939Z,11.25
2022-12-01T08:51:21.584Z,11.35
2022-12-01T08:53:50.023Z,11.33
2022-12-01T08:56:29.147Z,11.47
2022-12-01T08:58:56.518Z,11.44
2022-12-01T09:01:23.373Z,11.44
2022-12-01T09:04:04.989Z,11.47
2022-12-01T09:06:33.537Z,11.50
2022-12-01T09:09:00.315Z,11.60
2022-12-01T09:11:26.905Z,11.57
2022-12-01T09:13:54.824Z,11.56
2022-12-01T09:16:21.801Z,11.55
2022-12-01T09:18:48.776Z,11.55
2022-12-01T09:21:16.750Z,11.72
2022-12-01T09:23:43.603Z,11.75
2022-12-01T09:26:13.513Z,11.79
2022-12-01T09:28:40.694Z,11.87
2022-12-01T09:31:09.172Z,11.95
2022-12-01T09:33:35.836Z,12.06
2022-12-01T09:36:03.287Z,12.07
2022-12-01T09:38:30.575Z,12.08
2022-12-01T09:41:00.724Z,12.11
2022-12-01T09:43:34.148Z,12.23
2022-12-01T09:46:07.509Z,12.19
2022-12-01T09:48:42.629Z,12.25
2022-12-01T09:51:25.067Z,12.22
2022-12-01T09:53:54.337Z,12.04
2022-12-01T09:56:30.890Z,12.01
2022-12-01T09:59:00.803Z,11.69
2022-12-01T10:01:37.867Z,12.05
2022-12-01T10:04:34.636Z,12.22
2022-12-01T10:07:21.633Z,12.13
2022-12-01T10:10:14.358Z,12.08
2022-12-01T10:12:43.024Z,12.10
2022-12-01T10:15:21.725Z,12.11
2022-12-01T10:18:16.664Z,12.15
2022-12-01T10:21:24.448Z,12.28
2022-12-01T10:24:09.646Z,12.21
2022-12-01T10:27:13.211Z,12.32
2022-12-01T10:29:47.795Z,12.10
2022-12-01T10:32:24.088Z,12.15
2022-12-01T10:34:51.353Z,12.23
2022-12-01T10:37:22.349Z,12.32
2022-12-01T10:39:52.081Z,12.20
2022-12-01T10:42:21.592Z,11.98
2022-12-01T10:44:49.030Z,11.81
2022-12-01T10:47:21.700Z,11.39
2022-12-01T10:49:48.905Z,11.70
2022-12-01T10:52:30.364Z,11.44
2022-12-01T10:54:56.871Z,11.44
2022-12-01T10:57:23.767Z,11.43
2022-12-01T11:00:57.555Z,11.54
2022-12-01T11:03:22.572Z,11.35
2022-12-01T11:05:58.813Z,11.48
2022-12-01T11:08:47.200Z,11.61
2022-12-01T11:11:37.796Z,11.74
2022-12-01T11:14:20.811Z,11.50
2022-12-01T11:16:49.353Z,11.52
2022-12-01T11:19:32.417Z,11.68
2022-12-01T11:22:18.554Z,11.71
2022-12-01T11:24:57.192Z,11.62
2022-12-01T11:27:35.085Z,11.78
2022-12-01T11:30:06.351Z,11.80
2022-12-01T11:32:39.100Z,11.83
2022-12-01T11:35:19.503Z,11.46
2022-12-01T11:38:27.898Z,11.22
2022-12-01T11:40:48.610Z,11.27
2022-12-01T11:43:28.012Z,11.53
2022-12-01T11:45:56.930Z,11.52
2022-12-01T11:48:28.320Z,11.60
2022-12-01T11:51:31.776Z,11.71
2022-12-01T11:54:15.348Z,11.72
2022-12-01T11:56:43.960Z,11.75
2022-12-01T11:59:17.164Z,11.73
2022-12-01T12:02:08.605Z,11.87
2022-12-01T12:04:43.946Z,11.96
2022-12-01T12:07:29.748Z,11.91
2022-12-01T12:10:02.988Z,11.92
2022-12-01T12:12:47.572Z,11.86
2022-12-01T12:15:35.509Z,12.00
2022-12-01T12:18:23.932Z,11.91
2022-12-01T12:21:05.695Z,11.69
2022-12-01T12:24:03.292Z,11.58
2022-12-01T12:26:35.030Z,11.66
2022-12-01T12:29:39.309Z,11.81
2022-12-01T12:32:34.081Z,11.74
2022-12-01T12:35:16.264Z,11.87
2022-12-01T12:38:09.756Z,12.01
2022-12-01T12:40:57.823Z,12.02
2022-12-01T12:43:39.206Z,12.10
2022-12-01T12:46:11.253Z,12.21
2022-12-01T12:52:13.666Z,12.17
2022-12-01T12:54:51.921Z,12.20
2022-12-01T12:57:35.252Z,12.33
2022-12-01T13:00:08.046Z,12.43
2022-12-01T13:02:42.355Z,12.32
2022-12-01T13:05:36.147Z,12.32
2022-12-01T13:08:09.077Z,12.35
2022-12-01T13:10:52.328Z,12.39
2022-12-01T13:13:25.100Z,12.35
2022-12-01T13:15:54.836Z,12.44
2022-12-01T13:18:41.731Z,12.25
2022-12-01T13:21:16.387Z,12.28
2022-12-01T13:23:45.801Z,12.19
2022-12-01T13:26:13.428Z,12.17
2022-12-01T13:28:45.242Z,12.00
2022-12-01T13:31:15.015Z,12.05
2022-12-01T13:33:53.608Z,12.08
2022-12-01T13:36:45.696Z,12.09
2022-12-01T13:39:18.544Z,11.98
2022-12-01T13:41:46.013Z,11.86
2022-12-01T13:44:28.235Z,11.84
2022-12-01T13:47:03.544Z,11.86
2022-12-01T13:49:48.019Z,11.78
2022-12-01T13:52:26.701Z,11.76
2022-12-01T13:55:08.484Z,11.87
2022-12-01T13:57:59.013Z,11.83
2022-12-01T14:00:29.625Z,11.83
2022-12-01T14:03:19.161Z,11.98
2022-12-01T14:06:06.268Z,11.92
2022-12-01T14:08:44.890Z,11.84
2022-12-01T14:11:26.362Z,11.86
2022-12-01T14:13:57.729Z,11.96
2022-12-01T14:16:25.264Z,11.78
2022-12-01T14:19:02.251Z,11.76
2022-12-01T14:21:49.485Z,11.51
2022-12-01T14:24:27.670Z,11.70
2022-12-01T14:26:55.173Z,11.71
2022-12-01T14:29:32.687Z,11.59
2022-12-01T15:43:23.376Z,11.40
2022-12-01T15:45:58.836Z,11.40
2022-12-01T15:48:29.456Z,11.27
2022-12-01T15:51:01.192Z,11.18
2022-12-01T15:53:34.068Z,11.02
2022-12-01T15:56:05.217Z,11.08
2022-12-01T15:58:36.185Z,11.17
2022-12-01T16:01:05.587Z,11.09
2022-12-01T16:03:45.657Z,11.18
2022-12-01T16:06:12.863Z,11.18
2022-12-01T16:08:39.577Z,11.28
2022-12-01T16:11:18.202Z,11.33
2022-12-01T16:13:58.178Z,11.39
2022-12-01T16:16:33.987Z,11.42
2022-12-01T16:19:03.332Z,11.23
2022-12-01T16:21:44.084Z,11.12
2022-12-01T16:24:16.386Z,11.22
2022-12-01T16:26:52.972Z,11.22
2022-12-01T16:29:22.591Z,11.25
2022-12-01T16:32:19.884Z,11.37
2022-12-01T16:34:46.171Z,11.37
2022-12-01T16:37:14.242Z,11.49
2022-12-01T16:39:41.084Z,11.35
2022-12-01T16:42:12.261Z,11.45
2022-12-01T16:44:38.888Z,11.49
2022-12-01T16:47:13.433Z,11.42
2022-12-01T16:49:40.025Z,11.54
2022-12-01T16:52:42.549Z,11.47
2022-12-01T16:54:53.521Z,11.52
2022-12-01T16:57:20.063Z,11.51
2022-12-01T16:59:47.152Z,11.48
2022-12-01T17:02:13.881Z,11.52
2022-12-01T17:04:40.523Z,11.47
2022-12-01T17:07:07.098Z,11.50
2022-12-01T17:09:33.817Z,11.50
2022-12-01T17:12:00.461Z,11.53
2022-12-01T17:14:27.026Z,11.62
2022-12-01T17:16:53.671Z,11.54
2022-12-01T17:19:20.351Z,11.58
2022-12-01T17:21:47.166Z,11.58
2022-12-01T17:24:18.732Z,11.57
2022-12-01T17:26:45.973Z,11.53
2022-12-01T17:29:12.558Z,11.48
2022-12-01T17:31:39.160Z,11.50
2022-12-01T17:34:05.764Z,11.61
2022-12-01T17:36:32.289Z,11.45
2022-12-01T17:38:58.894Z,11.57
2022-12-01T17:41:32.054Z,11.60
2022-12-01T17:44:01.942Z,11.52
2022-12-01T17:46:29.516Z,11.58
2022-12-01T17:48:56.057Z,11.46
2022-12-01T17:51:22.595Z,11.36
2022-12-01T17:53:49.152Z,11.52
2022-12-01T17:56:17.306Z,11.57
2022-12-01T17:58:44.157Z,11.54
2022-12-01T18:01:16.292Z,11.51
2022-12-01T18:03:43.278Z,11.60
2022-12-01T18:06:10.783Z,11.52
2022-12-01T18:08:37.765Z,11.57
2022-12-01T18:11:10.040Z,11.51
2022-12-01T18:13:38.282Z,11.52
2022-12-01T18:16:14.199Z,11.51
2022-12-01T18:18:41.418Z,11.62
2022-12-01T18:21:09.922Z,11.55
2022-12-01T18:23:36.723Z,11.51
2022-12-01T18:26:15.147Z,11.64
2022-12-01T18:28:43.050Z,11.67
2022-12-01T18:31:12.401Z,11.69
2022-12-01T18:33:41.795Z,11.54
2022-12-01T18:36:15.467Z,11.58
2022-12-01T18:38:45.053Z,11.60
2022-12-01T18:41:11.603Z,11.57
2022-12-01T18:43:38.177Z,11.58
2022-12-01T18:46:05.765Z,11.59
2022-12-01T18:48:33.349Z,11.55
2022-12-01T18:51:04.760Z,11.52
2022-12-01T18:53:31.944Z,11.54
2022-12-01T18:56:05.652Z,11.62
2022-12-01T18:58:33.168Z,11.65
2022-12-01T19:01:00.944Z,11.48
2022-12-01T19:03:32.005Z,11.42
2022-12-01T19:05:58.861Z,11.46
2022-12-01T19:08:25.417Z,11.51
2022-12-01T19:11:02.973Z,11.43
2022-12-01T19:13:31.666Z,11.46
2022-12-01T19:15:58.803Z,11.44
2022-12-01T19:18:25.406Z,11.52
2022-12-01T19:20:52.651Z,11.49
2022-12-01T19:23:19.322Z,11.41
2022-12-01T19:25:45.888Z,11.40
2022-12-01T19:28:12.391Z,11.46
2022-12-01T19:30:42.868Z,11.46
2022-12-01T19:33:13.850Z,11.44
2022-12-01T19:35:40.464Z,11.49
2022-12-01T19:38:07.721Z,11.38
2022-12-01T19:40:36.514Z,11.43
2022-12-01T19:43:03.156Z,11.53
2022-12-01T19:45:31.354Z,11.50
2022-12-01T19:47:58.565Z,11.48
2022-12-01T19:50:25.196Z,11.41
2022-12-01T19:52:51.884Z,11.49
2022-12-01T19:55:18.539Z,11.48
2022-12-01T19:57:45.088Z,11.59
2022-12-01T20:00:12.192Z,11.59
2022-12-01T20:02:38.786Z,11.54
2022-12-01T20:05:05.733Z,11.56
2022-12-01T20:07:32.353Z,11.51
2022-12-01T20:09:58.906Z,11.60
2022-12-01T20:12:25.512Z,11.47
2022-12-01T20:14:52.460Z,11.56
2022-12-01T20:17:19.236Z,11.51
2022-12-01T20:19:45.767Z,11.54
2022-12-01T20:22:12.304Z,11.65
2022-12-01T20:24:41.150Z,11.59
2022-12-01T20:27:08.222Z,11.61
2022-12-01T20:29:35.116Z,11.50
2022-12-01T20:32:03.013Z,11.53
2022-12-01T20:34:35.225Z,11.48
2022-12-01T20:37:02.862Z,11.56
2022-12-01T20:39:32.307Z,11.55
2022-12-01T20:41:58.858Z,11.53
2022-12-01T20:44:25.418Z,11.62
2022-12-01T20:46:52.454Z,11.61
2022-12-01T20:49:19.807Z,11.65
2022-12-01T20:51:46.905Z,11.66
2022-12-01T20:54:30.916Z,11.53
2022-12-01T20:56:58.044Z,11.63
2022-12-01T20:59:25.797Z,11.52
2022-12-01T21:01:52.326Z,11.54
2022-12-01T21:04:18.957Z,11.31
2022-12-01T21:06:46.274Z,11.49
2022-12-01T21:09:14.582Z,11.57
2022-12-01T21:12:07.261Z,11.48
2022-12-01T21:15:02.154Z,11.49
2022-12-01T21:17:35.436Z,11.44
2022-12-01T21:20:08.316Z,11.43
2022-12-01T21:22:35.989Z,11.31
2022-12-01T21:25:16.788Z,11.31
2022-12-01T21:27:43.485Z,11.29
2022-12-01T21:30:20.828Z,11.42
2022-12-01T21:32:48.906Z,11.37
2022-12-01T21:35:15.694Z,11.28
2022-12-01T21:37:42.289Z,11.26
2022-12-01T21:40:15.062Z,11.23
2022-12-01T21:42:41.586Z,11.28
2022-12-01T21:45:31.842Z,11.34
2022-12-01T21:48:01.408Z,11.23
2022-12-01T21:50:28.075Z,11.31
2022-12-01T21:52:54.754Z,11.36
2022-12-01T21:55:21.241Z,11.37
2022-12-01T21:57:53.201Z,11.39
2022-12-01T22:00:31.946Z,11.45
2022-12-01T22:03:17.148Z,11.38
2022-12-01T22:06:21.315Z,11.36
2022-12-01T22:08:41.901Z,11.31
2022-12-01T22:11:08.376Z,11.35
2022-12-01T22:14:03.902Z,11.39
2022-12-01T22:16:32.922Z,11.28
2022-12-01T22:19:02.265Z,11.34
2022-12-01T22:21:32.586Z,11.26
2022-12-01T22:24:11.974Z,11.34
2022-12-01T22:26:43.158Z,11.20
2022-12-01T22:29:30.974Z,11.18
2022-12-01T22:32:12.948Z,11.08
2022-12-01T22:34:42.529Z,11.27
2022-12-01T22:37:24.707Z,11.19
2022-12-01T22:39:56.351Z,11.17
2022-12-01T22:42:34.364Z,11.24
2022-12-01T22:45:23.772Z,11.35
2022-12-01T22:47:51.561Z,11.41
2022-12-01T22:50:26.978Z,11.36
2022-12-01T22:52:57.961Z,11.34
2022-12-01T22:55:24.513Z,11.39
2022-12-01T22:57:51.229Z,11.39
2022-12-01T23:00:23.256Z,11.38
2022-12-01T23:02:52.447Z,11.37
2022-12-01T23:05:28.945Z,11.39
2022-12-01T23:07:56.569Z,11.37
2022-12-01T23:10:23.162Z,11.40
2022-12-01T23:12:52.648Z,11.47
2022-12-01T23:15:40.631Z,11.26
2022-12-01T23:18:25.475Z,11.38
2022-12-01T23:20:57.441Z,11.41
2022-12-01T23:23:35.661Z,11.33
2022-12-01T23:26:04.718Z,11.42
2022-12-01T23:28:34.705Z,11.33
2022-12-01T23:31:01.392Z,11.40
2022-12-01T23:33:35.182Z,11.22
2022-12-01T23:36:12.053Z,11.25
2022-12-01T23:38:45.196Z,11.41
2022-12-01T23:41:26.080Z,11.35
2022-12-01T23:43:55.394Z,11.49
2022-12-01T23:46:28.161Z,11.43
2022-12-01T23:49:04.758Z,11.40
2022-12-01T23:51:32.632Z,11.44
2022-12-01T23:54:06.497Z,11.36
2022-12-01T23:56:33.264Z,11.38
2022-12-01T23:59:01.152Z,11.30
